createdAt,value
2022-11-26T00:01:23.403Z,19.92
2022-11-26T00:03:49.802Z,16.00
2022-11-26T00:06:16.105Z,22.33
2022-11-26T00:08:42.466Z,19.08
2022-11-26T00:11:08.774Z,22.30
2022-11-26T00:13:35.081Z,19.60
2022-11-26T00:16:01.394Z,23.33
2022-11-26T00:18:27.770Z,18.40
2022-11-26T00:20:54.196Z,17.90
2022-11-26T00:23:20.795Z,23.50
2022-11-26T00:25:47.177Z,19.40
2022-11-26T00:28:13.481Z,23.23
2022-11-26T00:30:39.959Z,24.33
2022-11-26T00:33:06.262Z,17.67
2022-11-26T00:35:32.570Z,22.77
2022-11-26T00:37:58.981Z,14.70
2022-11-26T00:40:25.306Z,17.08
2022-11-26T00:42:51.625Z,18.23
2022-11-26T00:45:17.942Z,20.30
2022-11-26T00:47:44.240Z,15.07
2022-11-26T00:50:10.572Z,20.48
2022-11-26T00:52:36.882Z,15.63
2022-11-26T00:55:03.222Z,17.10
2022-11-26T00:57:29.542Z,19.95
2022-11-26T00:59:56.090Z,15.30
2022-11-26T01:02:22.467Z,19.30
2022-11-26T01:04:48.798Z,16.37
2022-11-26T01:07:15.171Z,14.57
2022-11-26T01:09:41.502Z,17.12
2022-11-26T01:12:08.739Z,16.40
2022-11-26T01:14:35.207Z,14.30
2022-11-26T01:17:01.654Z,21.02
2022-11-26T01:19:27.995Z,21.60
2022-11-26T01:21:54.328Z,23.55
2022-11-26T01:24:20.642Z,19.27
2022-11-26T01:26:47.037Z,19.98
2022-11-26T01:29:13.346Z,18.80
2022-11-26T01:31:39.764Z,19.80
2022-11-26T01:34:06.600Z,17.85
2022-11-26T01:36:33.127Z,17.42
2022-11-26T01:38:59.442Z,22.27
2022-11-26T01:41:25.757Z,19.65
2022-11-26T01:43:52.096Z,18.02
2022-11-26T01:46:22.204Z,16.48
2022-11-26T01:48:48.522Z,17.35
2022-11-26T01:53:46.310Z,14.55
2022-11-26T01:56:12.655Z,21.27
2022-11-26T01:58:40.203Z,17.48
2022-11-26T02:01:06.817Z,17.52
2022-11-26T02:03:33.173Z,17.83
2022-11-26T02:05:59.659Z,21.12
2022-11-26T02:08:25.983Z,23.92
2022-11-26T02:10:52.417Z,20.52
2022-11-26T02:13:18.753Z,21.30
2022-11-26T02:15:45.084Z,22.52
2022-11-26T02:18:11.434Z,20.02
2022-11-26T02:20:37.750Z,17.67
2022-11-26T02:23:04.553Z,17.75
2022-11-26T02:25:30.899Z,19.92
2022-11-26T02:27:57.232Z,20.85
2022-11-26T02:30:23.709Z,19.50
2022-11-26T02:32:50.031Z,22.60
2022-11-26T02:35:16.370Z,20.50
2022-11-26T02:37:42.758Z,21.58
2022-11-26T02:40:09.070Z,21.48
2022-11-26T02:42:35.390Z,22.13
2022-11-26T02:45:01.722Z,17.10
2022-11-26T02:47:28.058Z,18.42
2022-11-26T02:49:54.377Z,23.02
2022-11-26T02:52:20.683Z,19.85
2022-11-26T02:54:47.048Z,21.00
2022-11-26T02:57:13.379Z,20.10
2022-11-26T02:59:39.685Z,19.27
2022-11-26T03:02:05.988Z,20.08
2022-11-26T03:04:32.294Z,24.48
2022-11-26T03:06:58.611Z,15.93
2022-11-26T03:09:24.946Z,20.92
2022-11-26T03:11:51.366Z,22.15
2022-11-26T03:14:17.770Z,18.33
2022-11-26T03:16:44.177Z,21.60
2022-11-26T03:19:10.542Z,19.30
2022-11-26T03:21:36.863Z,22.35
2022-11-26T03:24:03.199Z,22.62
2022-11-26T03:26:29.561Z,19.98
2022-11-26T03:28:55.890Z,17.33
2022-11-26T03:31:22.319Z,18.95
2022-11-26T03:33:48.666Z,21.85
2022-11-26T03:36:14.983Z,21.17
2022-11-26T03:38:41.286Z,20.90
2022-11-26T03:41:07.675Z,22.20
2022-11-26T03:43:33.984Z,22.65
2022-11-26T03:46:00.368Z,22.30
2022-11-26T03:48:26.722Z,18.98
2022-11-26T03:50:53.049Z,17.60
2022-11-26T03:53:19.387Z,18.67
2022-11-26T03:55:45.723Z,15.98
2022-11-26T03:58:12.027Z,18.87
2022-11-26T04:00:38.360Z,18.27
2022-11-26T04:03:04.782Z,19.55
2022-11-26T04:05:31.207Z,16.00
2022-11-26T04:07:57.556Z,20.67
2022-11-26T04:10:23.915Z,19.70
2022-11-26T04:12:50.216Z,24.65
2022-11-26T04:15:16.541Z,23.25
2022-11-26T04:17:42.911Z,22.05
2022-11-26T04:20:09.237Z,20.02
2022-11-26T04:22:35.550Z,20.52
2022-11-26T04:25:01.876Z,21.50
2022-11-26T04:27:28.258Z,21.12
2022-11-26T04:29:54.604Z,21.73
2022-11-26T04:32:20.918Z,23.35
2022-11-26T04:34:47.246Z,20.95
2022-11-26T04:37:13.551Z,18.67
2022-11-26T04:39:39.868Z,21.52
2022-11-26T04:42:06.173Z,23.87
2022-11-26T04:44:32.495Z,23.52
2022-11-26T04:46:58.802Z,24.42
2022-11-26T04:49:25.286Z,25.10
2022-11-26T04:51:51.595Z,22.90
2022-11-26T04:54:17.964Z,24.60
2022-11-26T04:56:44.352Z,24.15
2022-11-26T04:59:10.995Z,25.55
2022-11-26T05:01:37.446Z,25.55
2022-11-26T05:04:03.836Z,24.95
2022-11-26T05:06:30.140Z,26.98
2022-11-26T05:08:56.467Z,24.40
2022-11-26T05:11:22.806Z,24.83
2022-11-26T05:13:49.128Z,27.95
2022-11-26T05:16:19.190Z,25.58
2022-11-26T05:18:45.557Z,26.00
2022-11-26T05:21:11.894Z,26.95
2022-11-26T05:23:38.214Z,23.55
2022-11-26T05:26:04.557Z,29.27
2022-11-26T05:28:30.889Z,22.98
2022-11-26T05:30:57.246Z,30.60
2022-11-26T05:33:23.694Z,24.17
2022-11-26T05:35:50.015Z,31.98
2022-11-26T05:38:16.394Z,26.40
2022-11-26T05:40:42.705Z,29.10
2022-11-26T05:43:09.132Z,27.10
2022-11-26T05:45:35.462Z,27.10
2022-11-26T05:48:01.789Z,27.17
2022-11-26T05:50:28.118Z,27.30
2022-11-26T05:52:54.449Z,29.42
2022-11-26T05:55:20.765Z,27.08
2022-11-26T05:57:47.103Z,31.90
2022-11-26T06:00:17.135Z,26.20
2022-11-26T06:02:43.612Z,24.90
2022-11-26T06:05:10.120Z,31.58
2022-11-26T06:07:40.611Z,30.88
2022-11-26T06:10:09.807Z,32.33
2022-11-26T06:12:36.182Z,30.70
2022-11-26T06:15:02.491Z,28.60
2022-11-26T06:17:28.812Z,31.35
2022-11-26T06:19:55.118Z,33.42
2022-11-26T06:22:21.437Z,30.85
2022-11-26T06:24:47.809Z,30.70
2022-11-26T06:27:14.121Z,31.67
2022-11-26T06:29:40.474Z,34.05
2022-11-26T06:32:06.823Z,27.73
2022-11-26T06:34:33.191Z,39.90
2022-11-26T06:36:59.501Z,39.97
2022-11-26T06:39:25.827Z,31.08
2022-11-26T06:41:52.130Z,36.75
2022-11-26T06:44:18.487Z,37.22
2022-11-26T06:46:44.823Z,38.60
2022-11-26T06:49:11.144Z,33.45
2022-11-26T06:51:37.458Z,38.13
2022-11-26T06:54:03.779Z,41.35
2022-11-26T06:56:30.094Z,37.03
2022-11-26T06:58:56.481Z,31.65
2022-11-26T07:01:23.977Z,31.45
2022-11-26T07:03:50.379Z,31.55
2022-11-26T07:06:17.241Z,36.35
2022-11-26T07:08:43.564Z,29.17
2022-11-26T07:11:10.821Z,34.05
2022-11-26T07:13:37.178Z,31.62
2022-11-26T07:16:03.695Z,27.77
2022-11-26T07:18:30.017Z,27.48
2022-11-26T07:20:56.472Z,28.50
2022-11-26T07:23:22.820Z,31.00
2022-11-26T07:25:49.145Z,28.20
2022-11-26T07:28:15.449Z,24.55
2022-11-26T07:30:41.785Z,32.75
2022-11-26T07:33:08.158Z,27.58
2022-11-26T07:35:34.505Z,29.27
2022-11-26T07:38:00.890Z,34.70
2022-11-26T07:40:27.219Z,27.42
2022-11-26T07:42:53.645Z,25.12
2022-11-26T07:45:19.972Z,25.55
2022-11-26T07:47:46.283Z,22.40
2022-11-26T07:50:12.612Z,28.58
2022-11-26T07:52:38.939Z,26.20
2022-11-26T07:55:11.001Z,24.40
2022-11-26T07:57:38.762Z,22.92
2022-11-26T08:00:05.086Z,27.62
2022-11-26T08:02:31.448Z,28.20
2022-11-26T08:04:57.826Z,27.15
2022-11-26T08:07:29.020Z,21.95
2022-11-26T08:09:55.866Z,22.45
2022-11-26T08:12:22.218Z,23.65
2022-11-26T08:14:48.661Z,23.75
2022-11-26T08:17:15.014Z,30.80
2022-11-26T08:19:41.395Z,26.80
2022-11-26T08:22:07.737Z,33.53
2022-11-26T08:24:34.089Z,25.27
2022-11-26T08:27:00.419Z,23.48
2022-11-26T08:29:26.734Z,22.70
2022-11-26T08:31:53.117Z,27.77
2022-11-26T08:34:19.467Z,20.45
2022-11-26T08:36:45.865Z,20.70
2022-11-26T08:39:12.182Z,23.60
2022-11-26T08:41:38.515Z,19.05
2022-11-26T08:44:06.658Z,19.90
2022-11-26T08:46:34.023Z,22.58
2022-11-26T08:49:00.488Z,19.83
2022-11-26T08:51:26.815Z,20.37
2022-11-26T08:53:55.469Z,20.40
2022-11-26T08:56:21.954Z,19.15
2022-11-26T08:58:49.255Z,20.92
2022-11-26T09:01:16.114Z,22.15
2022-11-26T09:03:42.502Z,21.45
2022-11-26T09:06:08.861Z,17.52
2022-11-26T09:08:44.977Z,14.87
2022-11-26T09:11:11.511Z,17.95
2022-11-26T09:13:37.847Z,18.87
2022-11-26T09:16:04.209Z,17.00
2022-11-26T09:18:30.593Z,19.30
2022-11-26T09:20:57.365Z,18.95
2022-11-26T09:23:23.755Z,15.48
2022-11-26T09:25:50.086Z,15.82
2022-11-26T09:28:16.419Z,15.98
2022-11-26T09:30:42.737Z,18.90
2022-11-26T09:33:11.071Z,20.70
2022-11-26T09:35:37.397Z,19.70
2022-11-26T09:38:03.741Z,17.45
2022-11-26T09:40:30.058Z,17.12
2022-11-26T09:42:56.406Z,21.27
2022-11-26T09:45:22.843Z,23.08
2022-11-26T09:47:49.488Z,18.20
2022-11-26T09:50:16.012Z,14.23
2022-11-26T09:52:42.653Z,17.48
2022-11-26T09:55:08.961Z,18.33
2022-11-26T09:57:35.283Z,17.98
2022-11-26T10:00:01.645Z,18.23
2022-11-26T10:02:27.973Z,17.95
2022-11-26T10:04:54.338Z,22.48
2022-11-26T10:07:20.681Z,15.10
2022-11-26T10:09:47.047Z,20.08
2022-11-26T10:12:24.648Z,19.87
2022-11-26T10:14:52.110Z,21.62
2022-11-26T10:17:18.462Z,16.83
2022-11-26T10:19:44.834Z,15.02
2022-11-26T10:22:11.306Z,9.32
2022-11-26T10:24:38.614Z,14.77
2022-11-26T10:27:05.178Z,12.80
2022-11-26T10:29:31.499Z,10.35
2022-11-26T10:31:58.084Z,15.15
2022-11-26T10:34:24.430Z,17.15
2022-11-26T10:36:50.770Z,12.00
2022-11-26T10:39:17.112Z,17.23
2022-11-26T10:41:43.454Z,17.33
2022-11-26T10:44:09.787Z,14.38
2022-11-26T10:46:36.240Z,13.18
2022-11-26T10:49:02.621Z,15.68
2022-11-26T10:51:33.216Z,12.77
2022-11-26T10:53:59.540Z,12.95
2022-11-26T10:56:25.882Z,14.15
2022-11-26T10:58:52.190Z,16.62
2022-11-26T11:01:18.662Z,15.70
2022-11-26T11:04:07.167Z,17.25
2022-11-26T11:06:31.314Z,14.65
2022-11-26T11:08:57.640Z,13.88
2022-11-26T11:11:24.028Z,14.73
2022-11-26T11:13:50.380Z,15.02
2022-11-26T11:16:16.814Z,15.10
2022-11-26T11:18:43.153Z,10.93
2022-11-26T11:21:09.479Z,15.07
2022-11-26T11:24:06.637Z,15.05
2022-11-26T11:26:22.218Z,14.80
2022-11-26T11:28:48.584Z,18.50
2022-11-26T11:31:15.057Z,11.65
2022-11-26T11:33:41.403Z,15.02
2022-11-26T11:36:07.827Z,15.32
2022-11-26T11:38:34.214Z,11.65
2022-11-26T11:41:00.539Z,15.15
2022-11-26T11:43:27.013Z,13.98
2022-11-26T11:45:53.659Z,15.07
2022-11-26T11:48:20.054Z,11.18
2022-11-26T11:50:48.776Z,12.48
2022-11-26T11:53:15.107Z,13.38
2022-11-26T11:55:41.429Z,11.82
2022-11-26T11:58:09.325Z,10.02
2022-11-26T12:00:35.651Z,15.10
2022-11-26T12:03:02.063Z,13.18
2022-11-26T12:05:28.411Z,18.70
2022-11-26T12:07:54.824Z,19.87
2022-11-26T12:10:21.207Z,15.25
2022-11-26T12:12:48.186Z,12.10
2022-11-26T12:15:14.532Z,12.63
2022-11-26T12:17:40.902Z,12.80
2022-11-26T12:20:07.430Z,10.82
2022-11-26T12:22:33.738Z,18.70
2022-11-26T12:25:00.185Z,15.60
2022-11-26T12:27:26.499Z,14.38
2022-11-26T12:29:52.854Z,13.10
2022-11-26T12:32:19.266Z,14.77
2022-11-26T12:34:45.956Z,12.60
2022-11-26T12:37:13.110Z,19.75
2022-11-26T12:39:39.435Z,13.60
2022-11-26T12:42:06.151Z,12.43
2022-11-26T12:44:32.569Z,15.25
2022-11-26T12:46:58.920Z,16.87
2022-11-26T12:49:25.559Z,16.27
2022-11-26T12:51:51.898Z,11.80
2022-11-26T12:54:18.510Z,16.48
2022-11-26T12:56:44.842Z,11.10
2022-11-26T12:59:11.204Z,11.57
2022-11-26T13:01:41.105Z,16.15
2022-11-26T13:04:37.307Z,12.18
2022-11-26T13:06:53.753Z,10.20
2022-11-26T13:09:20.109Z,11.32
2022-11-26T13:11:46.516Z,12.57
2022-11-26T13:14:12.882Z,11.88
2022-11-26T13:16:40.068Z,10.48
2022-11-26T13:19:07.052Z,15.45
2022-11-26T13:21:33.458Z,12.20
2022-11-26T13:23:59.757Z,10.88
2022-11-26T13:26:26.176Z,13.07
2022-11-26T13:28:52.510Z,15.00
2022-11-26T13:31:18.843Z,22.95
2022-11-26T13:33:45.187Z,11.12
2022-11-26T13:36:11.573Z,13.50
2022-11-26T13:38:37.983Z,16.02
2022-11-26T13:41:04.305Z,13.07
2022-11-26T13:43:30.652Z,14.25
2022-11-26T13:45:57.088Z,13.05
2022-11-26T13:48:23.593Z,12.95
2022-11-26T13:50:49.951Z,10.98
2022-11-26T13:53:17.159Z,12.70
2022-11-26T13:55:43.649Z,10.43
2022-11-26T13:58:10.118Z,10.52
2022-11-26T14:00:37.275Z,13.30
2022-11-26T14:03:03.649Z,10.60
2022-11-26T14:05:29.991Z,14.73
2022-11-26T14:07:56.442Z,9.65
2022-11-26T14:10:22.823Z,16.62
2022-11-26T14:12:49.137Z,14.95
2022-11-26T14:15:15.507Z,17.75
2022-11-26T14:17:41.826Z,12.43
2022-11-26T14:20:08.246Z,12.65
2022-11-26T14:22:34.599Z,16.37
2022-11-26T14:25:00.997Z,10.23
2022-11-26T14:27:27.346Z,12.20
2022-11-26T14:29:53.694Z,11.90
2022-11-26T14:32:20.007Z,14.10
2022-11-26T14:34:46.379Z,11.38
2022-11-26T14:37:12.688Z,15.40
2022-11-26T14:39:39.025Z,14.20
2022-11-26T14:42:06.585Z,15.60
2022-11-26T14:44:33.238Z,13.70
2022-11-26T14:46:59.592Z,13.38
2022-11-26T14:49:25.906Z,10.77
2022-11-26T14:51:53.720Z,11.10
2022-11-26T14:54:20.378Z,11.40
2022-11-26T14:56:46.826Z,14.73
2022-11-26T14:59:13.322Z,12.95
2022-11-26T15:01:39.656Z,14.27
2022-11-26T15:04:06.031Z,12.95
2022-11-26T15:06:37.817Z,18.02
2022-11-26T15:09:04.146Z,12.63
2022-11-26T15:11:30.466Z,18.20
2022-11-26T15:13:56.851Z,12.82
2022-11-26T15:16:23.230Z,13.35
2022-11-26T15:18:49.634Z,12.82
2022-11-26T15:21:15.959Z,12.80
2022-11-26T15:23:42.288Z,13.43
2022-11-26T15:26:08.596Z,12.55
2022-11-26T15:28:35.089Z,15.75
2022-11-26T15:31:01.515Z,12.57
2022-11-26T15:33:27.931Z,10.32
2022-11-26T15:35:57.409Z,8.48
2022-11-26T15:38:23.861Z,9.73
2022-11-26T15:40:50.169Z,15.45
2022-11-26T15:43:16.490Z,12.80
2022-11-26T15:45:42.814Z,12.45
2022-11-26T15:48:09.168Z,14.00
2022-11-26T15:50:35.479Z,16.60
2022-11-26T15:53:01.839Z,16.05
2022-11-26T15:55:28.500Z,12.85
2022-11-26T15:57:54.942Z,14.40
2022-11-26T16:00:21.392Z,14.18
2022-11-26T16:02:47.842Z,11.82
2022-11-26T16:05:14.315Z,12.98
2022-11-26T16:07:40.733Z,9.55
2022-11-26T16:10:07.122Z,14.20
2022-11-26T16:12:33.462Z,16.10
2022-11-26T16:14:59.885Z,16.80
2022-11-26T16:17:26.204Z,14.98
2022-11-26T16:19:52.594Z,15.18
2022-11-26T16:22:21.678Z,15.30
2022-11-26T16:24:50.419Z,15.32
2022-11-26T16:27:17.788Z,18.02
2022-11-26T16:29:44.093Z,20.08
2022-11-26T16:32:10.406Z,14.00
2022-11-26T16:34:36.837Z,15.20
2022-11-26T16:37:03.281Z,15.32
2022-11-26T16:39:30.542Z,13.90
2022-11-26T16:41:57.325Z,14.55
2022-11-26T16:44:23.679Z,13.10
2022-11-26T16:46:50.019Z,18.58
2022-11-26T16:49:16.339Z,14.25
2022-11-26T16:51:42.714Z,19.17
2022-11-26T16:54:09.097Z,15.70
2022-11-26T16:56:39.046Z,15.45
2022-11-26T16:59:05.629Z,20.23
2022-11-26T17:01:32.084Z,19.45
2022-11-26T17:03:58.480Z,18.02
2022-11-26T17:06:25.003Z,15.75
2022-11-26T17:08:51.465Z,12.60
2022-11-26T17:11:17.899Z,16.77
2022-11-26T17:13:44.332Z,16.92
2022-11-26T17:16:10.856Z,15.90
2022-11-26T17:18:37.194Z,19.48
2022-11-26T17:21:03.518Z,18.27
2022-11-26T17:23:29.870Z,15.38
2022-11-26T17:25:57.047Z,17.85
2022-11-26T17:28:23.404Z,18.02
2022-11-26T17:30:50.050Z,14.80
2022-11-26T17:33:16.455Z,20.48
2022-11-26T17:35:42.864Z,18.42
2022-11-26T17:38:09.222Z,15.23
2022-11-26T17:40:35.634Z,15.35
2022-11-26T17:43:01.965Z,18.17
2022-11-26T17:45:28.305Z,18.60
2022-11-26T17:47:54.660Z,16.77
2022-11-26T17:50:21.024Z,16.50
2022-11-26T17:52:48.662Z,15.27
2022-11-26T17:55:15.049Z,16.75
2022-11-26T17:57:41.366Z,16.20
2022-11-26T18:00:07.818Z,13.45
2022-11-26T18:02:34.213Z,17.55
2022-11-26T18:05:00.705Z,15.25
2022-11-26T18:07:27.270Z,15.98
2022-11-26T18:09:53.738Z,16.02
2022-11-26T18:12:24.689Z,17.90
2022-11-26T18:14:51.610Z,14.05
2022-11-26T18:17:18.071Z,16.52
2022-11-26T18:19:44.385Z,17.85
2022-11-26T18:22:10.704Z,17.65
2022-11-26T18:24:37.050Z,15.60
2022-11-26T18:27:03.432Z,20.70
2022-11-26T18:29:30.318Z,18.02
2022-11-26T18:31:56.751Z,17.60
2022-11-26T18:34:23.128Z,19.10
2022-11-26T18:36:53.492Z,21.48
2022-11-26T18:39:20.333Z,13.98
2022-11-26T18:41:46.693Z,20.30
2022-11-26T18:44:13.038Z,15.73
2022-11-26T18:46:39.512Z,24.98
2022-11-26T18:49:05.958Z,18.65
2022-11-26T18:51:32.390Z,22.25
2022-11-26T18:53:58.768Z,19.98
2022-11-26T18:56:25.193Z,21.08
2022-11-26T18:58:51.526Z,17.87
2022-11-26T19:01:17.882Z,16.67
2022-11-26T19:03:44.496Z,20.95
2022-11-26T19:06:10.827Z,18.98
2022-11-26T19:08:39.025Z,17.85
2022-11-26T19:11:05.375Z,20.55
2022-11-26T19:13:31.729Z,15.77
2022-11-26T19:15:58.727Z,16.37
2022-11-26T19:18:25.039Z,24.45
2022-11-26T19:20:51.538Z,22.08
2022-11-26T19:23:18.411Z,32.15
2022-11-26T19:25:45.773Z,19.08
2022-11-26T19:28:12.435Z,23.08
2022-11-26T19:30:38.822Z,29.65
2022-11-26T19:33:05.626Z,21.30
2022-11-26T19:35:31.967Z,24.17
2022-11-26T19:37:58.286Z,23.45
2022-11-26T19:40:24.634Z,27.98
2022-11-26T19:42:51.021Z,30.62
2022-11-26T19:45:17.395Z,28.08
2022-11-26T19:47:43.749Z,28.27
2022-11-26T19:50:10.097Z,29.35
2022-11-26T19:52:36.401Z,33.35
2022-11-26T19:55:02.734Z,33.05
2022-11-26T19:57:29.048Z,36.78
2022-11-26T19:59:55.416Z,33.63
2022-11-26T20:02:21.827Z,40.95
2022-11-26T20:04:48.160Z,41.80
2022-11-26T20:07:14.589Z,40.30
2022-11-26T20:09:41.284Z,37.90
2022-11-26T20:12:07.887Z,36.33
2022-11-26T20:14:34.213Z,42.22
2022-11-26T20:17:01.310Z,42.25
2022-11-26T20:19:27.894Z,44.15
2022-11-26T20:21:54.235Z,39.50
2022-11-26T20:24:20.631Z,39.58
2022-11-26T20:26:48.690Z,40.72
2022-11-26T20:29:15.109Z,38.50
2022-11-26T20:31:41.455Z,49.20
2022-11-26T20:34:07.785Z,39.30
2022-11-26T20:36:34.156Z,41.28
2022-11-26T20:39:00.489Z,35.83
2022-11-26T20:41:26.927Z,42.95
2022-11-26T20:43:58.233Z,38.30
2022-11-26T20:46:25.718Z,47.22
2022-11-26T20:48:52.206Z,43.28
2022-11-26T20:51:18.566Z,37.50
2022-11-26T20:53:50.207Z,38.78
2022-11-26T20:56:16.547Z,41.83
2022-11-26T20:58:43.226Z,39.28
2022-11-26T21:01:09.663Z,42.97
2022-11-26T21:03:36.010Z,35.47
2022-11-26T21:06:02.373Z,36.88
2022-11-26T21:08:28.690Z,34.20
2022-11-26T21:10:55.125Z,33.47
2022-11-26T21:13:22.728Z,37.17
2022-11-26T21:15:49.069Z,37.97
2022-11-26T21:18:15.463Z,31.55
2022-11-26T21:20:41.818Z,31.77
2022-11-26T21:23:08.116Z,34.92
2022-11-26T21:28:06.169Z,35.80
2022-11-26T21:30:32.549Z,31.00
2022-11-26T21:32:59.953Z,36.10
2022-11-26T21:35:27.671Z,35.58
2022-11-26T21:37:53.994Z,43.42
2022-11-26T21:40:20.604Z,38.13
2022-11-26T21:42:46.936Z,35.40
2022-11-26T21:45:13.341Z,35.28
2022-11-26T21:47:39.660Z,35.20
2022-11-26T21:50:06.012Z,35.88
2022-11-26T21:52:32.327Z,35.55
2022-11-26T21:55:03.389Z,32.28
2022-11-26T21:57:30.285Z,32.78
2022-11-26T21:59:56.606Z,33.92
2022-11-26T22:02:22.992Z,30.80
2022-11-26T22:04:49.335Z,27.85
2022-11-26T22:07:15.861Z,25.92
2022-11-26T22:09:42.295Z,20.95
2022-11-26T22:12:08.759Z,23.60
2022-11-26T22:14:35.146Z,20.88
2022-11-26T22:17:01.494Z,27.15
2022-11-26T22:19:27.811Z,24.23
2022-11-26T22:21:54.192Z,22.95
2022-11-26T22:24:20.575Z,21.70
2022-11-26T22:26:46.915Z,22.62
2022-11-26T22:29:13.269Z,20.00
2022-11-26T22:34:10.982Z,23.10
2022-11-26T22:36:37.388Z,21.15
2022-11-26T22:39:03.747Z,21.92
2022-11-26T22:41:30.110Z,16.73
2022-11-26T22:43:56.484Z,17.30
2022-11-26T22:46:22.955Z,16.98
2022-11-26T22:48:49.379Z,17.95
2022-11-26T22:51:15.685Z,24.10
2022-11-26T22:53:42.005Z,23.60
2022-11-26T22:56:08.307Z,20.60
2022-11-26T22:58:34.639Z,21.10
2022-11-26T23:01:00.986Z,20.08
2022-11-26T23:03:27.397Z,20.27
2022-11-26T23:05:53.822Z,22.35
2022-11-26T23:08:20.132Z,19.90
2022-11-26T23:10:46.736Z,18.37
2022-11-26T23:13:13.097Z,23.48
2022-11-26T23:15:44.335Z,22.27
2022-11-26T23:18:11.102Z,20.25
2022-11-26T23:20:37.418Z,20.95
2022-11-26T23:23:03.803Z,21.60
2022-11-26T23:25:30.137Z,23.17
2022-11-26T23:27:56.454Z,16.45
2022-11-26T23:30:22.797Z,14.75
2022-11-26T23:32:49.136Z,17.35
2022-11-26T23:35:15.493Z,20.02
2022-11-26T23:37:41.910Z,22.75
2022-11-26T23:40:08.253Z,17.30
2022-11-26T23:42:34.561Z,17.15
2022-11-26T23:45:02.790Z,17.92
2022-11-26T23:47:29.102Z,15.68
2022-11-26T23:50:00.648Z,18.12
2022-11-26T23:52:27.309Z,21.30
2022-11-26T23:54:53.661Z,19.30
2022-11-26T23:57:20.565Z,21.08
2022-11-26T23:59:46.902Z,20.37
